createdAt,value
2018-12-21T00:02:03.131Z,2.20
2018-12-21T00:04:45.059Z,2.10
2018-12-21T00:07:27.693Z,2.00
2018-12-21T00:10:09.894Z,1.62
2018-12-21T00:12:53.194Z,1.70
2018-12-21T00:15:35.510Z,2.10
2018-12-21T00:18:18.390Z,1.85
2018-12-21T00:21:01.130Z,1.65
2018-12-21T00:23:43.315Z,1.77
2018-12-21T00:26:25.818Z,1.82
2018-12-21T00:29:08.431Z,1.80
2018-12-21T00:31:55.919Z,1.50
2018-12-21T00:34:43.102Z,1.40
2018-12-21T00:37:30.429Z,1.37
2018-12-21T00:40:18.332Z,1.45
2018-12-21T00:43:05.475Z,1.47
2018-12-21T00:45:50.859Z,1.30
2018-12-21T00:48:33.268Z,1.30
2018-12-21T00:51:15.521Z,1.30
2018-12-21T00:53:57.419Z,1.30
2018-12-21T00:56:39.349Z,1.57
2018-12-21T00:59:21.474Z,1.40
2018-12-21T01:02:05.339Z,1.17
2018-12-21T01:04:47.783Z,1.40
2018-12-21T01:07:29.490Z,1.47
2018-12-21T01:10:12.863Z,1.27
2018-12-21T01:12:56.408Z,1.42
2018-12-21T01:15:38.638Z,1.12
2018-12-21T01:18:21.019Z,1.30
2018-12-21T01:21:03.639Z,1.30
2018-12-21T01:23:46.185Z,1.50
2018-12-21T01:26:28.107Z,1.35
2018-12-21T01:29:10.420Z,1.30
2018-12-21T01:31:53.375Z,1.30
2018-12-21T01:34:35.681Z,1.25
2018-12-21T01:37:17.504Z,1.47
2018-12-21T01:39:59.914Z,1.40
2018-12-21T01:42:41.777Z,1.00
2018-12-21T01:45:24.115Z,1.20
2018-12-21T01:48:06.860Z,1.20
2018-12-21T01:50:49.577Z,1.47
2018-12-21T01:53:31.539Z,1.30
2018-12-21T01:56:13.990Z,1.50
2018-12-21T01:58:56.268Z,1.45
2018-12-21T02:01:38.167Z,1.12
2018-12-21T02:04:20.004Z,1.05
2018-12-21T02:07:02.304Z,1.35
2018-12-21T02:09:44.246Z,1.37
2018-12-21T02:12:26.447Z,1.20
2018-12-21T02:15:09.366Z,1.25
2018-12-21T02:17:51.738Z,1.67
2018-12-21T02:20:34.439Z,1.55
2018-12-21T02:23:17.173Z,1.72
2018-12-21T02:25:59.172Z,1.40
2018-12-21T02:28:42.530Z,1.32
2018-12-21T02:31:24.925Z,1.50
2018-12-21T02:34:06.992Z,1.60
2018-12-21T02:36:49.305Z,1.50
2018-12-21T02:39:31.314Z,1.80
2018-12-21T02:42:13.453Z,1.52
2018-12-21T02:44:55.200Z,1.60
2018-12-21T02:47:38.166Z,1.50
2018-12-21T02:50:20.283Z,1.70
2018-12-21T02:53:02.397Z,1.70
2018-12-21T02:55:44.904Z,1.62
2018-12-21T02:58:27.148Z,1.80
2018-12-21T03:01:09.172Z,1.85
2018-12-21T03:03:51.310Z,1.47
2018-12-21T03:06:33.942Z,1.90
2018-12-21T03:09:15.760Z,1.80
2018-12-21T03:11:58.674Z,1.60
2018-12-21T03:14:41.164Z,1.75
2018-12-21T03:17:23.269Z,1.60
2018-12-21T03:20:06.680Z,1.87
2018-12-21T03:22:48.990Z,1.42
2018-12-21T03:25:31.296Z,1.67
2018-12-21T03:28:13.527Z,1.90
2018-12-21T03:30:55.385Z,1.60
2018-12-21T03:33:37.339Z,1.37
2018-12-21T03:36:19.645Z,1.70
2018-12-21T03:39:01.751Z,1.60
2018-12-21T03:41:43.920Z,1.55
2018-12-21T03:44:26.599Z,1.47
2018-12-21T03:47:09.091Z,1.92
2018-12-21T03:49:51.098Z,1.40
2018-12-21T03:52:33.455Z,1.75
2018-12-21T03:55:15.803Z,1.67
2018-12-21T03:57:57.558Z,1.47
2018-12-21T04:00:39.698Z,1.40
2018-12-21T04:03:22.137Z,1.20
2018-12-21T04:06:03.855Z,1.50
2018-12-21T04:08:45.567Z,1.20
2018-12-21T04:11:27.370Z,1.62
2018-12-21T04:14:09.111Z,1.32
2018-12-21T04:16:51.261Z,1.60
2018-12-21T04:19:33.442Z,1.25
2018-12-21T04:22:15.666Z,1.50
2018-12-21T04:24:58.031Z,1.10
2018-12-21T04:27:40.176Z,1.62
2018-12-21T04:30:22.303Z,1.40
2018-12-21T04:33:04.129Z,1.42
2018-12-21T04:35:47.005Z,1.40
2018-12-21T04:38:28.896Z,1.27
2018-12-21T04:41:10.394Z,1.65
2018-12-21T04:43:53.380Z,1.72
2018-12-21T04:46:35.962Z,1.42
2018-12-21T04:49:18.231Z,1.62
2018-12-21T04:52:00.590Z,1.55
2018-12-21T04:54:42.894Z,1.30
2018-12-21T04:57:24.892Z,1.70
2018-12-21T05:00:07.692Z,1.72
2018-12-21T05:02:50.142Z,1.20
2018-12-21T05:05:33.185Z,1.37
2018-12-21T05:08:16.105Z,1.60
2018-12-21T05:10:58.381Z,1.60
2018-12-21T05:13:40.433Z,1.40
2018-12-21T05:16:22.500Z,1.32
2018-12-21T05:19:04.711Z,1.30
2018-12-21T05:21:47.305Z,1.27
2018-12-21T05:24:29.475Z,1.10
2018-12-21T05:27:11.631Z,1.20
2018-12-21T05:29:53.621Z,1.12
2018-12-21T05:32:35.376Z,1.40
2018-12-21T05:35:17.659Z,1.30
2018-12-21T05:37:59.764Z,1.05
2018-12-21T05:40:41.839Z,1.27
2018-12-21T05:43:24.013Z,1.10
2018-12-21T05:46:06.164Z,1.25
2018-12-21T05:48:48.274Z,1.02
2018-12-21T05:51:30.071Z,1.10
2018-12-21T05:54:12.689Z,1.30
2018-12-21T05:56:55.337Z,1.27
2018-12-21T05:59:37.203Z,1.35
2018-12-21T06:02:19.334Z,1.10
2018-12-21T06:05:01.125Z,1.22
2018-12-21T06:07:43.332Z,1.12
2018-12-21T06:10:25.278Z,1.10
2018-12-21T06:13:07.622Z,1.12
2018-12-21T06:15:49.854Z,1.10
2018-12-21T06:18:31.767Z,1.17
2018-12-21T06:21:13.753Z,1.27
2018-12-21T06:23:55.690Z,1.10
2018-12-21T06:26:37.944Z,0.93
2018-12-21T06:29:20.426Z,1.30
2018-12-21T06:32:02.625Z,1.02
2018-12-21T06:34:44.451Z,1.22
2018-12-21T06:37:26.368Z,1.37
2018-12-21T06:40:08.979Z,1.10
2018-12-21T06:42:51.136Z,1.12
2018-12-21T06:45:33.845Z,1.25
2018-12-21T06:48:16.089Z,1.50
2018-12-21T06:50:58.153Z,1.20
2018-12-21T06:53:40.792Z,1.40
2018-12-21T06:56:22.997Z,1.80
2018-12-21T06:59:06.271Z,1.40
2018-12-21T07:01:48.806Z,1.30
2018-12-21T07:04:31.258Z,1.60
2018-12-21T07:07:13.290Z,1.62
2018-12-21T07:09:55.435Z,1.57
2018-12-21T07:12:37.942Z,1.90
2018-12-21T07:15:20.244Z,1.65
2018-12-21T07:18:02.529Z,1.60
2018-12-21T07:20:52.032Z,1.80
2018-12-21T07:23:34.507Z,1.67
2018-12-21T07:26:16.767Z,1.80
2018-12-21T07:28:59.343Z,2.20
2018-12-21T07:31:42.301Z,1.82
2018-12-21T07:34:25.993Z,1.77
2018-12-21T07:37:09.201Z,2.00
2018-12-21T07:39:51.842Z,2.00
2018-12-21T07:42:34.219Z,1.70
2018-12-21T07:45:16.464Z,2.72
2018-12-21T07:47:58.414Z,1.75
2018-12-21T07:50:40.900Z,2.30
2018-12-21T07:53:23.000Z,2.22
2018-12-21T07:56:05.616Z,2.30
2018-12-21T07:58:47.410Z,2.40
2018-12-21T08:01:29.563Z,2.17
2018-12-21T08:04:11.612Z,2.30
2018-12-21T08:06:53.502Z,2.22
2018-12-21T08:09:36.476Z,2.00
2018-12-21T08:12:18.895Z,2.42
2018-12-21T08:15:01.395Z,1.87
2018-12-21T08:17:43.395Z,1.80
2018-12-21T08:20:25.558Z,2.37
2018-12-21T08:23:07.808Z,1.85
2018-12-21T08:25:50.378Z,1.65
2018-12-21T08:28:32.551Z,1.82
2018-12-21T08:31:14.920Z,1.90
2018-12-21T08:33:57.045Z,2.12
2018-12-21T08:36:39.455Z,1.80
2018-12-21T08:39:22.009Z,1.75
2018-12-21T08:42:04.132Z,1.67
2018-12-21T08:44:45.932Z,1.80
2018-12-21T08:47:27.914Z,1.70
2018-12-21T08:50:11.738Z,2.00
2018-12-21T08:52:53.557Z,2.12
2018-12-21T08:55:35.980Z,1.98
2018-12-21T08:58:20.348Z,1.57
2018-12-21T09:01:02.304Z,1.90
2018-12-21T09:03:44.127Z,1.45
2018-12-21T09:06:27.145Z,1.62
2018-12-21T09:09:10.145Z,1.77
2018-12-21T09:11:52.696Z,1.92
2018-12-21T09:14:34.867Z,1.52
2018-12-21T09:17:16.684Z,2.25
2018-12-21T09:19:58.931Z,1.50
2018-12-21T09:22:40.763Z,2.05
2018-12-21T09:25:22.682Z,1.90
2018-12-21T09:28:05.993Z,1.62
2018-12-21T09:30:47.864Z,1.90
2018-12-21T09:33:30.088Z,1.77
2018-12-21T09:36:12.497Z,1.50
2018-12-21T09:38:54.491Z,1.42
2018-12-21T09:41:43.259Z,2.60
2018-12-21T09:44:25.525Z,2.30
2018-12-21T09:47:08.986Z,2.67
2018-12-21T09:49:50.987Z,4.62
2018-12-21T09:52:32.885Z,4.50
2018-12-21T09:55:14.897Z,2.60
2018-12-21T09:57:57.304Z,1.80
2018-12-21T10:00:39.457Z,2.25
2018-12-21T10:03:21.363Z,5.05
2018-12-21T10:06:03.917Z,5.15
2018-12-21T10:08:46.019Z,2.80
2018-12-21T10:11:28.656Z,2.00
2018-12-21T10:14:10.798Z,1.87
2018-12-21T10:16:52.638Z,1.47
2018-12-21T10:19:34.382Z,4.25
2018-12-21T10:22:16.643Z,4.15
2018-12-21T10:24:58.951Z,2.90
2018-12-21T10:27:41.692Z,2.20
2018-12-21T10:30:24.243Z,1.50
2018-12-21T10:33:06.373Z,2.05
2018-12-21T10:35:48.490Z,2.08
2018-12-21T10:38:30.648Z,2.95
2018-12-21T10:41:13.112Z,5.20
2018-12-21T10:43:55.046Z,4.55
2018-12-21T10:46:37.419Z,2.62
2018-12-21T10:49:19.664Z,1.65
2018-12-21T10:52:01.799Z,1.50
2018-12-21T10:54:43.725Z,1.30
2018-12-21T10:57:26.435Z,1.17
2018-12-21T11:00:13.302Z,1.20
2018-12-21T11:02:55.199Z,1.50
2018-12-21T11:05:37.439Z,1.62
2018-12-21T11:08:19.631Z,1.50
2018-12-21T11:11:02.038Z,2.37
2018-12-21T11:13:44.313Z,2.55
2018-12-21T11:16:32.429Z,2.52
2018-12-21T11:19:14.718Z,2.67
2018-12-21T11:22:02.786Z,2.45
2018-12-21T11:24:45.143Z,2.50
2018-12-21T11:27:27.736Z,3.10
2018-12-21T11:30:10.584Z,3.10
2018-12-21T11:32:53.076Z,2.72
2018-12-21T11:35:35.137Z,2.52
2018-12-21T11:38:16.959Z,2.02
2018-12-21T11:40:58.721Z,1.60
2018-12-21T11:43:42.172Z,1.60
2018-12-21T11:46:24.070Z,1.52
2018-12-21T11:49:08.753Z,1.62
2018-12-21T11:51:51.399Z,1.60
2018-12-21T11:54:33.240Z,1.90
2018-12-21T11:57:15.454Z,1.82
2018-12-21T11:59:57.983Z,2.10
2018-12-21T12:02:40.878Z,1.80
2018-12-21T12:05:23.052Z,2.12
2018-12-21T12:08:05.486Z,2.15
2018-12-21T12:10:48.213Z,1.72
2018-12-21T12:13:30.380Z,2.20
2018-12-21T12:16:12.742Z,2.42
2018-12-21T12:18:55.412Z,2.02
2018-12-21T12:21:38.101Z,2.37
2018-12-21T12:24:19.837Z,2.00
2018-12-21T12:27:02.352Z,2.40
2018-12-21T12:29:44.216Z,2.20
2018-12-21T12:32:26.165Z,1.87
2018-12-21T12:35:09.693Z,2.00
2018-12-21T12:37:51.448Z,2.27
2018-12-21T12:40:33.998Z,1.77
2018-12-21T12:43:23.682Z,2.42
2018-12-21T12:46:06.088Z,1.98
2018-12-21T12:48:48.327Z,1.80
2018-12-21T12:51:30.507Z,2.00
2018-12-21T12:54:14.012Z,1.92
2018-12-21T12:56:56.856Z,1.70
2018-12-21T12:59:39.644Z,1.65
2018-12-21T13:02:21.384Z,2.05
2018-12-21T13:05:03.870Z,1.52
2018-12-21T13:07:45.625Z,1.37
2018-12-21T13:10:27.589Z,1.37
2018-12-21T13:13:12.205Z,1.42
2018-12-21T13:15:54.332Z,1.30
2018-12-21T13:18:36.554Z,1.10
2018-12-21T13:21:19.220Z,1.30
2018-12-21T13:24:00.991Z,1.30
2018-12-21T13:26:42.919Z,1.40
2018-12-21T13:29:24.866Z,1.22
2018-12-21T13:32:06.774Z,1.20
2018-12-21T13:34:48.907Z,1.02
2018-12-21T13:37:31.411Z,1.00
2018-12-21T13:40:13.833Z,1.00
2018-12-21T13:42:55.865Z,1.10
2018-12-21T13:45:37.938Z,1.30
2018-12-21T13:48:19.784Z,0.95
2018-12-21T13:51:02.247Z,1.02
2018-12-21T13:53:44.167Z,1.12
2018-12-21T13:56:26.465Z,1.27
2018-12-21T13:59:08.456Z,1.17
2018-12-21T14:01:50.294Z,1.27
2018-12-21T14:04:32.491Z,1.50
2018-12-21T14:07:14.232Z,1.27
2018-12-21T14:09:56.875Z,1.00
2018-12-21T14:12:38.660Z,1.20
2018-12-21T14:15:20.532Z,0.90
2018-12-21T14:18:02.673Z,1.02
2018-12-21T14:20:44.457Z,1.62
2018-12-21T14:23:27.547Z,1.20
2018-12-21T14:26:09.658Z,1.30
2018-12-21T14:28:51.601Z,1.12
2018-12-21T14:31:33.829Z,1.20
2018-12-21T14:34:15.606Z,1.20
2018-12-21T14:36:57.447Z,1.50
2018-12-21T14:39:39.551Z,1.55
2018-12-21T14:42:22.180Z,1.55
2018-12-21T14:45:04.260Z,2.00
2018-12-21T14:47:46.489Z,2.45
2018-12-21T14:50:28.891Z,2.10
2018-12-21T14:53:12.281Z,2.08
2018-12-21T14:55:54.035Z,2.20
2018-12-21T14:58:36.218Z,2.50
2018-12-21T15:01:18.080Z,2.60
2018-12-21T15:04:00.902Z,2.35
2018-12-21T15:06:43.479Z,2.70
2018-12-21T15:09:29.165Z,2.40
2018-12-21T15:12:11.229Z,2.42
2018-12-21T15:14:53.462Z,2.30
2018-12-21T15:17:36.142Z,2.30
2018-12-21T15:20:19.056Z,3.45
2018-12-21T15:23:00.873Z,2.83
2018-12-21T15:25:46.217Z,2.20
2018-12-21T15:28:27.556Z,2.33
2018-12-21T15:31:09.419Z,1.90
2018-12-21T15:33:51.554Z,1.72
2018-12-21T15:36:34.657Z,2.00
2018-12-21T15:39:17.908Z,0.82
2018-12-21T15:42:00.048Z,0.70
2018-12-21T15:44:42.639Z,0.78
2018-12-21T15:47:24.954Z,1.10
2018-12-21T15:50:11.493Z,1.15
2018-12-21T15:52:54.161Z,0.85
2018-12-21T15:55:37.525Z,0.75
2018-12-21T15:58:19.110Z,0.73
2018-12-21T16:01:01.966Z,1.50
2018-12-21T16:03:43.974Z,4.03
2018-12-21T16:06:26.350Z,0.80
2018-12-21T16:09:09.695Z,0.70
2018-12-21T16:11:51.813Z,0.78
2018-12-21T16:14:34.482Z,0.62
2018-12-21T16:17:17.325Z,0.70
2018-12-21T16:19:59.183Z,0.40
2018-12-21T16:22:42.443Z,0.70
2018-12-21T16:25:25.549Z,0.50
2018-12-21T16:28:08.539Z,0.65
2018-12-21T16:30:51.508Z,0.47
2018-12-21T16:33:33.208Z,0.50
2018-12-21T16:36:15.949Z,0.75
2018-12-21T16:38:58.354Z,0.88
2018-12-21T16:41:41.211Z,0.60
2018-12-21T16:44:24.873Z,1.30
2018-12-21T16:47:06.583Z,4.17
2018-12-21T16:49:48.845Z,0.90
2018-12-21T16:52:32.707Z,0.60
2018-12-21T16:55:15.363Z,0.70
2018-12-21T16:57:57.580Z,0.60
2018-12-21T17:00:40.051Z,0.72
2018-12-21T17:03:22.664Z,0.60
2018-12-21T17:06:05.556Z,0.60
2018-12-21T17:08:47.976Z,0.57
2018-12-21T17:11:30.313Z,0.53
2018-12-21T17:14:13.034Z,0.60
2018-12-21T17:16:55.164Z,0.40
2018-12-21T17:19:37.751Z,0.80
2018-12-21T17:22:20.345Z,0.70
2018-12-21T17:25:02.969Z,0.80
2018-12-21T17:27:45.814Z,0.40
2018-12-21T17:30:28.432Z,0.50
2018-12-21T17:33:10.830Z,0.50
2018-12-21T17:35:53.216Z,0.45
2018-12-21T17:38:35.449Z,0.50
2018-12-21T17:41:17.473Z,0.57
2018-12-21T17:43:59.427Z,0.45
2018-12-21T17:46:41.187Z,0.50
2018-12-21T17:49:23.080Z,0.50
2018-12-21T17:52:05.323Z,0.50
2018-12-21T17:54:47.738Z,0.60
2018-12-21T17:57:29.787Z,0.70
2018-12-21T18:00:18.511Z,0.70
2018-12-21T18:03:00.499Z,0.98
2018-12-21T18:05:43.317Z,0.70
2018-12-21T18:08:25.119Z,0.60
2018-12-21T18:11:07.256Z,1.30
2018-12-21T18:13:49.767Z,0.93
2018-12-21T18:16:32.865Z,0.80
2018-12-21T18:19:14.996Z,0.70
2018-12-21T18:22:16.713Z,0.37
2018-12-21T18:25:03.565Z,0.70
2018-12-21T18:27:50.043Z,0.50
2018-12-21T18:30:39.502Z,0.70
2018-12-21T18:33:24.617Z,1.00
2018-12-21T18:36:07.536Z,1.00
2018-12-21T18:38:49.677Z,0.70
2018-12-21T18:41:32.552Z,1.00
2018-12-21T18:44:14.512Z,1.72
2018-12-21T18:46:56.857Z,0.80
2018-12-21T18:49:39.004Z,0.90
2018-12-21T18:52:20.796Z,0.90
2018-12-21T18:55:05.022Z,0.80
2018-12-21T18:57:49.811Z,0.70
2018-12-21T19:00:32.202Z,1.00
2018-12-21T19:03:14.406Z,1.35
2018-12-21T19:05:57.191Z,0.90
2018-12-21T19:08:39.147Z,0.80
2018-12-21T19:11:25.476Z,1.27
2018-12-21T19:14:10.061Z,1.30
2018-12-21T19:16:52.622Z,0.90
2018-12-21T19:19:35.941Z,0.80
2018-12-21T19:22:18.613Z,0.80
2018-12-21T19:25:00.564Z,0.75
2018-12-21T19:27:42.554Z,1.07
2018-12-21T19:30:25.802Z,0.70
2018-12-21T19:33:08.244Z,1.07
2018-12-21T19:35:50.110Z,0.90
2018-12-21T19:38:31.767Z,0.70
2018-12-21T19:41:15.027Z,0.90
2018-12-21T19:43:57.684Z,0.78
2018-12-21T19:46:39.802Z,0.90
2018-12-21T19:49:21.614Z,1.00
2018-12-21T19:52:04.260Z,0.72
2018-12-21T19:54:51.819Z,0.90
2018-12-21T19:57:34.180Z,1.00
2018-12-21T20:00:16.179Z,1.23
2018-12-21T20:02:59.676Z,2.15
2018-12-21T20:05:41.683Z,1.80
2018-12-21T20:08:24.157Z,1.15
2018-12-21T20:11:07.201Z,1.00
2018-12-21T20:13:49.437Z,0.88
2018-12-21T20:16:31.917Z,1.05
2018-12-21T20:19:14.630Z,1.40
2018-12-21T20:21:57.281Z,1.07
2018-12-21T20:24:40.991Z,0.97
2018-12-21T20:27:23.632Z,0.98
2018-12-21T20:30:09.737Z,1.10
2018-12-21T20:32:52.305Z,0.90
2018-12-21T20:35:34.775Z,1.40
2018-12-21T20:38:21.405Z,1.67
2018-12-21T20:41:04.251Z,0.65
2018-12-21T20:43:46.239Z,0.80
2018-12-21T20:46:28.049Z,1.20
2018-12-21T20:49:09.628Z,0.97
2018-12-21T20:51:51.217Z,1.50
2018-12-21T20:54:32.764Z,1.40
2018-12-21T20:57:21.871Z,1.15
2018-12-21T21:00:01.764Z,1.47
2018-12-21T21:02:45.345Z,1.87
2018-12-21T21:05:26.936Z,1.23
2018-12-21T21:08:09.342Z,1.10
2018-12-21T21:10:51.265Z,1.40
2018-12-21T21:13:34.103Z,1.10
2018-12-21T21:16:16.261Z,1.22
2018-12-21T21:18:58.427Z,1.00
2018-12-21T21:21:40.663Z,1.20
2018-12-21T21:24:22.967Z,1.02
2018-12-21T21:27:05.010Z,1.98
2018-12-21T21:29:47.382Z,1.40
2018-12-21T21:32:29.674Z,2.02
2018-12-21T21:35:13.190Z,1.80
2018-12-21T21:37:55.052Z,1.85
2018-12-21T21:40:39.254Z,1.17
2018-12-21T21:43:21.430Z,1.32
2018-12-21T21:46:03.432Z,1.10
2018-12-21T21:48:45.666Z,0.78
2018-12-21T21:51:27.957Z,0.80
2018-12-21T21:54:09.618Z,0.80
2018-12-21T21:56:52.402Z,0.90
2018-12-21T21:59:34.617Z,0.75
2018-12-21T22:02:16.767Z,1.00
2018-12-21T22:04:59.250Z,1.35
2018-12-21T22:07:41.769Z,1.10
2018-12-21T22:10:23.632Z,1.05
2018-12-21T22:13:05.877Z,1.30
2018-12-21T22:15:47.983Z,1.40
2018-12-21T22:18:30.894Z,1.10
2018-12-21T22:21:13.357Z,1.40
2018-12-21T22:23:55.321Z,1.52
2018-12-21T22:26:37.706Z,1.50
2018-12-21T22:29:19.997Z,1.80
2018-12-21T22:32:01.999Z,1.50
2018-12-21T22:34:45.444Z,1.90
2018-12-21T22:37:27.956Z,1.35
2018-12-21T22:40:09.947Z,1.30
2018-12-21T22:42:52.028Z,2.22
2018-12-21T22:45:35.822Z,1.77
2018-12-21T22:48:17.839Z,1.50
2018-12-21T22:51:00.043Z,3.95
2018-12-21T22:53:42.261Z,1.92
2018-12-21T22:56:24.372Z,1.32
2018-12-21T22:59:08.309Z,1.47
2018-12-21T23:01:51.107Z,1.75
2018-12-21T23:04:33.170Z,1.33
2018-12-21T23:07:15.476Z,1.30
2018-12-21T23:09:58.127Z,1.50
2018-12-21T23:12:40.472Z,1.55
2018-12-21T23:15:23.178Z,1.50
2018-12-21T23:18:05.753Z,1.65
2018-12-21T23:20:47.637Z,1.40
2018-12-21T23:23:29.942Z,1.60
2018-12-21T23:26:11.772Z,1.40
2018-12-21T23:28:53.990Z,1.70
2018-12-21T23:31:35.985Z,1.27
2018-12-21T23:34:17.819Z,1.75
2018-12-21T23:36:59.844Z,1.65
2018-12-21T23:39:42.447Z,2.00
2018-12-21T23:42:24.704Z,1.70
2018-12-21T23:45:08.742Z,2.05
2018-12-21T23:47:51.149Z,2.17
2018-12-21T23:50:33.591Z,1.75
2018-12-21T23:53:15.829Z,1.55
2018-12-21T23:55:58.621Z,1.55
2018-12-21T23:58:40.922Z,2.00
